• Join FlightAware (Why Join?)
  • Login
  • US Flag 
04:56PM EDT


 

Airport Tracker/Info


-or-


 

Live Flight TrackerFlight Track Log ✈ UAL4236 ✈ 10-May-2013 ✈ KIAH - KCRP

Flight Track Log - Related Links

Times and Time Zones

All times are in EDT time to prevent confusion due to time zone crossing. See the UAL4236 flight status page for this flight to view local times or setup timezone preferences in your user account.

Time Position Orientation Groundspeed Altitude Reporting Facility
EDT Latitude Longitude Course Direction KTS MPH feet Rate Location/Type
10:09PM 29.9619 -95.3458 133° Southeast 165 190 700  Level Houston Center
10:10PM 29.9286 -95.3042 133° Southeast 198 228 2,600 1,500 Climbing Houston Center
10:11PM 29.8781 -95.2311 129° Southeast 238 274 4,000 1,740 Climbing Houston Center
10:12PM 29.8328 -95.1678 129° Southeast 252 290 6,600 2,460 Climbing Houston Center
10:13PM 29.7850 -95.0994 129° Southeast 268 308 9,100 2,160 Climbing Houston Center
10:14PM 29.7133 -95.0747 163° South 287 330 11,000 1,620 Climbing Houston Center
10:15PM 29.6503 -95.1372 221° Southwest 306 352 12,400 1,500 Climbing Houston Center
10:16PM 29.5861 -95.2208 229° Southwest 323 372 14,100 1,560 Climbing Houston Center
10:17PM 29.5356 -95.2883 229° Southwest 330 380 15,600 1,740 Climbing Houston Center
10:18PM 29.4619 -95.3819 228° Southwest 329 379 17,700 1,860 Climbing Houston Center
10:19PM 29.4022 -95.4586 228° Southwest 323 372 19,400 1,320 Climbing Houston Center
10:20PM 29.3406 -95.5372 228° Southwest 330 380 20,500 1,020 Climbing Houston Center
10:21PM 29.2742 -95.6211 228° Southwest 352 405 21,500 720 Climbing Houston Center
10:22PM 29.2069 -95.7075 228° Southwest 361 415 22,000 240 Climbing Houston Center
10:23PM 29.1372 -95.7964 228° Southwest 375 432 22,000  Level Houston Center
10:24PM 29.0664 -95.8844 227° Southwest 377 434 22,000  Level Houston Center
10:25PM 28.9964 -95.9733 228° Southwest 377 434 22,000  Level Houston Center
10:26PM 28.9258 -96.0614 228° Southwest 381 438 22,000  Level Houston Center
10:27PM 28.8567 -96.1506 228° Southwest 375 432 22,000  Level Houston Center
10:29PM 28.7722 -96.2572 228° Southwest 377 434 22,000  Level Houston Center
10:30PM 28.7000 -96.3450 227° Southwest 378 435 22,000 -360 Level Houston Center
10:31PM 28.6308 -96.4333 228° Southwest 375 432 21,300 -1,140 Descending Houston Center
10:32PM 28.5608 -96.5197 227° Southwest 371 427 19,700 -1,620 Descending Houston Center
10:33PM 28.4906 -96.6089 228° Southwest 375 432 18,100 -1,560 Descending Houston Center
10:34PM 28.4222 -96.6933 227° Southwest 370 426 16,600 -1,620 Descending Houston Center
10:35PM 28.3581 -96.7736 228° Southwest 353 406 14,900 -1,680 Descending Houston Center
10:36PM 28.3086 -96.8653 239° Southwest 342 394 13,200 -1,560 Descending Houston Center
10:37PM 28.2667 -96.9500 241° Southwest 308 354 11,800 -1,320 Descending Houston Center
10:38PM 28.2289 -97.0247 240° Southwest 279 321 10,500 -1,260 Descending Houston Center
10:39PM 28.1914 -97.1000 241° Southwest 275 316 9,300 -1,140 Descending Houston Center
10:40PM 28.1533 -97.1742 240° Southwest 273 314 8,300 -1,080 Descending Houston Center
10:41PM 28.1178 -97.2475 241° Southwest 269 310 7,200 -1,020 Descending Houston Center
10:42PM 28.0797 -97.3192 239° Southwest 266 306 6,300 -1,080 Descending Houston Center
10:43PM 28.0342 -97.4100 240° Southwest 274 315 5,100 -1,140 Descending Houston Center
10:44PM 27.9975 -97.4831 240° Southwest 271 312 4,100 -1,020 Descending Houston Center
10:45PM 27.9619 -97.5539 240° Southwest 263 303 3,100 -960 Descending Houston Center
10:46PM 27.9258 -97.6239 240° Southwest 228 262 2,100 -540 Descending Houston Center
10:47PM 27.8725 -97.6192 176° South 180 207 2,100 -240 Level Houston Center
10:48PM 27.8392 -97.5811 135° Southeast 177 204 1,700 -600 Descending Houston Center
10:49PM 27.8103 -97.5494 136° Southeast 128 147 900 -840 Descending Houston Center
10:51PM 27.7667 -97.5000 204° Southwest  Level FlightAware Approximate